Time,TemperatureF,DewpointF,PressureIn,WindDirection,WindDirectionDegrees,WindSpeedMPH,WindSpeedGustMPH,Humidity,HourlyPrecipIn,Conditions,Clouds,dailyrainin,SolarRadiationWatts/m^2,SoftwareType,DateUTC
2013-07-24 00:22:00,67.0,53.0,-100.00,SE,133,0.0,8.0,61,0.00,,,0.00,0.000000,,2013-07-24 07:22:00,
2013-07-24 00:32:00,67.0,53.0,-100.00,SE,133,0.0,8.0,61,0.00,,,0.00,0.000000,,2013-07-24 07:32:00,
2013-07-24 00:43:00,67.0,53.0,-100.00,SE,133,0.0,8.0,61,0.00,,,0.00,0.000000,,2013-07-24 07:43:00,
2013-07-24 00:52:00,67.0,53.0,-100.00,SE,133,0.0,8.0,61,0.00,,,0.00,0.000000,,2013-07-24 07:52:00,
2013-07-24 01:32:00,67.0,54.0,-100.00,ESE,102,0.0,4.0,64,0.00,,,0.00,0.000000,,2013-07-24 08:32:00,
2013-07-24 01:42:00,67.0,54.0,-100.00,ESE,102,0.0,4.0,64,0.00,,,0.00,0.000000,,2013-07-24 08:42:00,
2013-07-24 01:52:00,67.0,54.0,-100.00,ESE,102,0.0,4.0,64,0.00,,,0.00,0.000000,,2013-07-24 08:52:00,
2013-07-24 02:43:00,65.0,53.0,-100.00,SE,131,0.0,4.0,65,0.00,,,0.00,0.000000,,2013-07-24 09:43:00,
2013-07-24 02:53:00,65.0,53.0,-100.00,SE,131,0.0,4.0,65,0.00,,,0.00,0.000000,,2013-07-24 09:53:00,
2013-07-24 03:43:00,66.0,55.0,-100.00,SE,127,0.0,6.0,67,0.00,,,0.00,0.000000,,2013-07-24 10:43:00,
2013-07-24 03:53:00,66.0,55.0,-100.00,SE,127,0.0,6.0,67,0.00,,,0.00,0.000000,,2013-07-24 10:53:00,
2013-07-24 04:22:00,67.0,55.0,-100.00,East,98,0.0,5.0,66,0.00,,,0.00,0.000000,,2013-07-24 11:22:00,
2013-07-24 04:32:00,67.0,55.0,-100.00,East,98,0.0,5.0,66,0.00,,,0.00,0.000000,,2013-07-24 11:32:00,
2013-07-24 04:43:00,67.0,55.0,-100.00,East,98,0.0,5.0,66,0.00,,,0.00,0.000000,,2013-07-24 11:43:00,
2013-07-24 04:52:00,67.0,55.0,-100.00,East,98,0.0,5.0,66,0.00,,,0.00,0.000000,,2013-07-24 11:52:00,
2013-07-24 05:42:00,65.0,53.0,-100.00,East,93,0.0,6.0,65,0.00,,,-99.99,0.000000,,2013-07-24 12:42:00,
2013-07-24 05:52:00,65.0,53.0,-100.00,East,93,0.0,6.0,65,0.00,,,-99.99,0.000000,,2013-07-24 12:52:00,
2013-07-24 06:22:00,65.0,53.0,-100.00,East,94,0.0,4.0,64,0.00,,,0.00,0.000000,,2013-07-24 13:22:00,
2013-07-24 06:32:00,65.0,53.0,-100.00,East,94,0.0,4.0,64,0.00,,,0.00,0.000000,,2013-07-24 13:32:00,
2013-07-24 06:43:00,65.0,53.0,-100.00,East,94,0.0,4.0,64,0.00,,,0.00,0.000000,,2013-07-24 13:43:00,
2013-07-24 06:53:00,65.0,53.0,-100.00,East,94,0.0,4.0,64,0.00,,,0.00,0.000000,,2013-07-24 13:53:00,
2013-07-24 07:43:00,66.0,53.0,-100.00,East,85,0.0,7.0,64,0.00,,,0.00,17.000000,,2013-07-24 14:43:00,
2013-07-24 07:55:00,66.0,53.0,-100.00,East,85,0.0,7.0,64,0.00,,,0.00,17.000000,,2013-07-24 14:55:00,
2013-07-24 08:32:00,73.0,54.0,-100.00,NE,42,0.0,4.0,52,0.00,,,0.00,59.000000,,2013-07-24 15:32:00,
2013-07-24 08:43:00,73.0,54.0,-100.00,NE,42,0.0,4.0,52,0.00,,,0.00,59.000000,,2013-07-24 15:43:00,
2013-07-24 08:52:00,73.0,54.0,-100.00,NE,42,0.0,4.0,52,0.00,,,0.00,59.000000,,2013-07-24 15:52:00,
2013-07-24 09:22:00,80.0,53.0,-100.00,West,265,1.0,5.0,40,0.00,,,0.00,438.000000,,2013-07-24 16:22:00,
2013-07-24 09:32:00,80.0,53.0,-100.00,West,265,1.0,5.0,40,0.00,,,0.00,438.000000,,2013-07-24 16:32:00,
2013-07-24 09:43:00,80.0,53.0,-100.00,West,265,1.0,5.0,40,0.00,,,0.00,438.000000,,2013-07-24 16:43:00,
2013-07-24 09:53:00,80.0,53.0,-100.00,West,265,1.0,5.0,40,0.00,,,0.00,438.000000,,2013-07-24 16:53:00,
2013-07-24 10:22:00,83.0,52.0,-100.00,ESE,106,3.0,4.0,35,0.00,,,0.00,737.000000,,2013-07-24 17:22:00,
2013-07-24 10:33:00,83.0,52.0,-100.00,ESE,106,3.0,4.0,35,0.00,,,0.00,737.000000,,2013-07-24 17:33:00,
2013-07-24 10:43:00,83.0,52.0,-100.00,ESE,106,3.0,4.0,35,0.00,,,0.00,737.000000,,2013-07-24 17:43:00,
2013-07-24 10:53:00,83.0,52.0,-100.00,ESE,106,3.0,4.0,35,0.00,,,0.00,737.000000,,2013-07-24 17:53:00,
2013-07-24 11:22:00,85.0,52.0,-100.00,WSW,258,4.0,9.0,32,0.00,,,0.00,929.000000,,2013-07-24 18:22:00,
2013-07-24 11:32:00,85.0,52.0,-100.00,WSW,258,4.0,9.0,32,0.00,,,0.00,929.000000,,2013-07-24 18:32:00,
2013-07-24 11:43:00,85.0,52.0,-100.00,WSW,258,4.0,9.0,32,0.00,,,0.00,929.000000,,2013-07-24 18:43:00,
2013-07-24 11:52:00,85.0,52.0,-100.00,WSW,258,4.0,9.0,32,0.00,,,0.00,929.000000,,2013-07-24 18:52:00,
2013-07-24 12:43:00,87.0,52.0,-100.00,NW,320,5.0,10.0,30,0.00,,,0.00,1066.000000,,2013-07-24 19:43:00,
2013-07-24 12:53:00,87.0,52.0,-100.00,NW,320,5.0,10.0,30,0.00,,,0.00,1066.000000,,2013-07-24 19:53:00,
2013-07-24 13:32:00,88.0,46.0,-100.00,West,263,5.0,10.0,23,0.00,,,0.00,1152.000000,,2013-07-24 20:32:00,
2013-07-24 13:42:00,88.0,46.0,-100.00,West,263,5.0,10.0,23,0.00,,,0.00,1152.000000,,2013-07-24 20:42:00,
2013-07-24 13:52:00,88.0,46.0,-100.00,West,263,5.0,10.0,23,0.00,,,0.00,1152.000000,,2013-07-24 20:52:00,
2013-07-24 14:22:00,90.0,46.0,-100.00,West,274,4.0,13.0,22,0.00,,,0.00,1151.000000,,2013-07-24 21:22:00,
2013-07-24 14:32:00,90.0,46.0,-100.00,West,274,4.0,13.0,22,0.00,,,0.00,1151.000000,,2013-07-24 21:32:00,
2013-07-24 14:43:00,90.0,46.0,-100.00,West,274,4.0,13.0,22,0.00,,,0.00,1151.000000,,2013-07-24 21:43:00,
2013-07-24 14:52:00,90.0,46.0,-100.00,West,274,4.0,13.0,22,0.00,,,0.00,1151.000000,,2013-07-24 21:52:00,
2013-07-24 15:43:00,92.0,48.0,-100.00,WNW,290,5.0,11.0,22,0.00,,,0.00,1085.000000,,2013-07-24 22:43:00,
2013-07-24 15:53:00,92.0,48.0,-100.00,WNW,290,5.0,11.0,22,0.00,,,0.00,1085.000000,,2013-07-24 22:53:00,
2013-07-24 16:22:00,94.0,48.0,-100.00,WNW,290,3.0,12.0,21,0.00,,,0.00,953.000000,,2013-07-24 23:22:00,
2013-07-24 16:32:00,94.0,48.0,-100.00,WNW,290,3.0,12.0,21,0.00,,,0.00,953.000000,,2013-07-24 23:32:00,
2013-07-24 16:43:00,94.0,48.0,-100.00,WNW,290,3.0,12.0,21,0.00,,,0.00,953.000000,,2013-07-24 23:43:00,
2013-07-24 16:52:00,94.0,48.0,-100.00,WNW,290,3.0,12.0,21,0.00,,,0.00,953.000000,,2013-07-24 23:52:00,
2013-07-24 17:22:00,91.0,48.0,-100.00,North,350,4.0,11.0,23,0.00,,,0.00,708.000000,,2013-07-25 00:22:00,
2013-07-24 17:33:00,91.0,48.0,-100.00,North,350,4.0,11.0,23,0.00,,,0.00,708.000000,,2013-07-25 00:33:00,
2013-07-24 17:43:00,91.0,48.0,-100.00,North,350,4.0,11.0,23,0.00,,,0.00,708.000000,,2013-07-25 00:43:00,
2013-07-24 17:52:00,91.0,48.0,-100.00,North,350,4.0,11.0,23,0.00,,,0.00,708.000000,,2013-07-25 00:52:00,
2013-07-24 18:22:00,90.0,48.0,-100.00,West,260,4.0,12.0,24,0.00,,,0.00,490.000000,,2013-07-25 01:22:00,
2013-07-24 18:32:00,90.0,48.0,-100.00,West,260,4.0,12.0,24,0.00,,,0.00,490.000000,,2013-07-25 01:32:00,
2013-07-24 18:42:00,90.0,48.0,-100.00,West,260,4.0,12.0,24,0.00,,,0.00,490.000000,,2013-07-25 01:42:00,
2013-07-24 18:52:00,90.0,48.0,-100.00,West,260,4.0,12.0,24,0.00,,,0.00,490.000000,,2013-07-25 01:52:00,
2013-07-24 19:22:00,85.0,47.0,-100.00,WNW,282,3.0,9.0,27,0.00,,,0.00,276.000000,,2013-07-25 02:22:00,
2013-07-24 19:33:00,85.0,47.0,-100.00,WNW,282,3.0,9.0,27,0.00,,,0.00,276.000000,,2013-07-25 02:33:00,
2013-07-24 19:43:00,85.0,47.0,-100.00,WNW,282,3.0,9.0,27,0.00,,,0.00,276.000000,,2013-07-25 02:43:00,
2013-07-24 19:52:00,85.0,47.0,-100.00,WNW,282,3.0,9.0,27,0.00,,,0.00,276.000000,,2013-07-25 02:52:00,
2013-07-24 20:34:00,78.0,46.0,-100.00,West,275,0.0,8.0,32,0.00,,,0.00,61.000000,,2013-07-25 03:34:00,
2013-07-24 20:44:00,78.0,46.0,-100.00,West,275,0.0,8.0,32,0.00,,,0.00,61.000000,,2013-07-25 03:44:00,
2013-07-24 20:52:00,78.0,46.0,-100.00,West,275,0.0,8.0,32,0.00,,,0.00,61.000000,,2013-07-25 03:52:00,
2013-07-24 21:43:00,73.0,47.0,-100.00,ESE,116,0.0,6.0,40,0.00,,,0.00,2.000000,,2013-07-25 04:43:00,
2013-07-24 21:53:00,73.0,47.0,-100.00,ESE,116,0.0,6.0,40,0.00,,,0.00,2.000000,,2013-07-25 04:53:00,
2013-07-24 22:43:00,71.0,47.0,-100.00,ESE,108,0.0,5.0,42,0.00,,,0.00,0.000000,,2013-07-25 05:43:00,
2013-07-24 22:52:00,71.0,47.0,-100.00,ESE,108,0.0,5.0,42,0.00,,,0.00,0.000000,,2013-07-25 05:52:00,
2013-07-24 23:22:00,72.0,48.0,-100.00,ESE,116,0.0,5.0,42,0.00,,,0.00,0.000000,,2013-07-25 06:22:00,
2013-07-24 23:32:00,72.0,48.0,-100.00,ESE,116,0.0,5.0,42,0.00,,,0.00,0.000000,,2013-07-25 06:32:00,
2013-07-24 23:42:00,72.0,48.0,-100.00,ESE,116,0.0,5.0,42,0.00,,,0.00,0.000000,,2013-07-25 06:42:00,
2013-07-24 23:52:00,72.0,48.0,-100.00,ESE,116,0.0,5.0,42,0.00,,,0.00,0.000000,,2013-07-25 06:52:00,